sensor_id;sensor_type;location;lat;lon;timestamp;P1;P2;P0
77413;PMS7003;66486;49.992;19.164;2023-04-25T00:01:17;16.60;14.80;11.20
77413;PMS7003;66486;49.992;19.164;2023-04-25T00:03:44;14.20;14.00;10.00
77413;PMS7003;66486;49.992;19.164;2023-04-25T00:06:11;19.00;18.60;10.40
77413;PMS7003;66486;49.992;19.164;2023-04-25T00:08:37;16.60;15.40;9.80
77413;PMS7003;66486;49.992;19.164;2023-04-25T00:11:04;15.00;13.80;8.20
77413;PMS7003;66486;49.992;19.164;2023-04-25T00:13:30;16.80;16.80;9.80
77413;PMS7003;66486;49.992;19.164;2023-04-25T00:15:56;13.00;12.00;8.50
77413;PMS7003;66486;49.992;19.164;2023-04-25T00:18:23;14.40;14.40;9.00
77413;PMS7003;66486;49.992;19.164;2023-04-25T00:20:50;17.00;15.80;10.00
77413;PMS7003;66486;49.992;19.164;2023-04-25T00:23:16;17.80;16.80;9.60
77413;PMS7003;66486;49.992;19.164;2023-04-25T00:25:45;10.80;10.80;8.40
77413;PMS7003;66486;49.992;19.164;2023-04-25T00:28:13;14.40;13.80;8.80
77413;PMS7003;66486;49.992;19.164;2023-04-25T00:30:39;15.20;14.40;9.80
77413;PMS7003;66486;49.992;19.164;2023-04-25T00:33:06;25.00;23.80;11.80
77413;PMS7003;66486;49.992;19.164;2023-04-25T00:35:33;21.60;21.60;14.20
77413;PMS7003;66486;49.992;19.164;2023-04-25T00:37:59;21.20;19.20;12.00
77413;PMS7003;66486;49.992;19.164;2023-04-25T00:40:26;19.60;19.40;11.40
77413;PMS7003;66486;49.992;19.164;2023-04-25T00:42:52;19.60;19.60;14.60
77413;PMS7003;66486;49.992;19.164;2023-04-25T00:45:18;25.60;24.40;13.00
77413;PMS7003;66486;49.992;19.164;2023-04-25T00:47:45;23.40;21.60;12.60
77413;PMS7003;66486;49.992;19.164;2023-04-25T00:50:13;26.60;25.60;14.00
77413;PMS7003;66486;49.992;19.164;2023-04-25T00:52:40;27.60;27.20;13.60
77413;PMS7003;66486;49.992;19.164;2023-04-25T00:55:08;25.60;24.40;15.40
77413;PMS7003;66486;49.992;19.164;2023-04-25T00:57:36;27.40;26.60;13.40
77413;PMS7003;66486;49.992;19.164;2023-04-25T01:00:03;21.80;20.40;13.80
77413;PMS7003;66486;49.992;19.164;2023-04-25T01:02:31;27.20;26.60;14.80
77413;PMS7003;66486;49.992;19.164;2023-04-25T01:04:58;33.00;30.40;15.40
77413;PMS7003;66486;49.992;19.164;2023-04-25T01:07:24;28.40;27.80;16.80
77413;PMS7003;66486;49.992;19.164;2023-04-25T01:09:51;29.60;29.40;17.80
77413;PMS7003;66486;49.992;19.164;2023-04-25T01:12:17;27.00;26.00;14.80
77413;PMS7003;66486;49.992;19.164;2023-04-25T01:14:43;21.50;19.50;9.00
77413;PMS7003;66486;49.992;19.164;2023-04-25T01:17:10;28.80;28.80;16.40
77413;PMS7003;66486;49.992;19.164;2023-04-25T01:19:36;20.40;20.40;13.40
77413;PMS7003;66486;49.992;19.164;2023-04-25T01:22:02;21.80;21.80;15.60
77413;PMS7003;66486;49.992;19.164;2023-04-25T01:24:29;39.60;34.80;21.00
77413;PMS7003;66486;49.992;19.164;2023-04-25T01:26:58;22.20;21.60;14.00
77413;PMS7003;66486;49.992;19.164;2023-04-25T01:29:26;33.60;31.80;17.60
77413;PMS7003;66486;49.992;19.164;2023-04-25T01:31:53;27.80;27.40;18.40
77413;PMS7003;66486;49.992;19.164;2023-04-25T01:34:19;26.60;21.80;14.40
77413;PMS7003;66486;49.992;19.164;2023-04-25T01:36:47;25.20;25.00;17.20
77413;PMS7003;66486;49.992;19.164;2023-04-25T01:39:15;18.40;18.40;12.80
77413;PMS7003;66486;49.992;19.164;2023-04-25T01:41:41;24.60;24.20;16.00
77413;PMS7003;66486;49.992;19.164;2023-04-25T01:44:08;23.40;23.40;12.60
77413;PMS7003;66486;49.992;19.164;2023-04-25T01:46:34;25.80;24.80;15.00
77413;PMS7003;66486;49.992;19.164;2023-04-25T01:49:00;20.20;19.40;12.80
77413;PMS7003;66486;49.992;19.164;2023-04-25T01:51:26;15.40;12.20;7.40
77413;PMS7003;66486;49.992;19.164;2023-04-25T01:53:52;18.75;17.50;11.00
77413;PMS7003;66486;49.992;19.164;2023-04-25T01:56:19;10.80;10.00;7.60
77413;PMS7003;66486;49.992;19.164;2023-04-25T01:58:45;16.00;16.00;10.00
77413;PMS7003;66486;49.992;19.164;2023-04-25T02:01:12;9.00;7.00;6.00
77413;PMS7003;66486;49.992;19.164;2023-04-25T02:03:38;11.20;11.20;9.00
77413;PMS7003;66486;49.992;19.164;2023-04-25T02:06:04;11.80;11.80;9.20
77413;PMS7003;66486;49.992;19.164;2023-04-25T02:08:30;15.00;15.00;9.75
77413;PMS7003;66486;49.992;19.164;2023-04-25T02:10:57;15.00;14.60;9.00
77413;PMS7003;66486;49.992;19.164;2023-04-25T02:13:23;16.80;15.60;12.40
77413;PMS7003;66486;49.992;19.164;2023-04-25T02:15:49;10.00;9.20;4.80
77413;PMS7003;66486;49.992;19.164;2023-04-25T02:18:15;13.00;13.00;9.00
77413;PMS7003;66486;49.992;19.164;2023-04-25T02:20:45;12.20;10.40;8.60
77413;PMS7003;66486;49.992;19.164;2023-04-25T02:23:10;14.80;12.80;9.40
77413;PMS7003;66486;49.992;19.164;2023-04-25T02:25:37;18.20;16.00;12.00
77413;PMS7003;66486;49.992;19.164;2023-04-25T02:28:02;9.00;6.75;6.50
77413;PMS7003;66486;49.992;19.164;2023-04-25T02:30:29;13.40;12.80;9.20
77413;PMS7003;66486;49.992;19.164;2023-04-25T02:32:54;13.25;12.75;9.25
77413;PMS7003;66486;49.992;19.164;2023-04-25T02:35:22;13.40;13.40;9.80
77413;PMS7003;66486;49.992;19.164;2023-04-25T02:37:47;14.50;13.00;10.00
77413;PMS7003;66486;49.992;19.164;2023-04-25T02:40:13;11.20;11.20;7.40
77413;PMS7003;66486;49.992;19.164;2023-04-25T02:42:39;16.50;15.50;11.50
77413;PMS7003;66486;49.992;19.164;2023-04-25T02:45:06;15.00;13.80;11.20
77413;PMS7003;66486;49.992;19.164;2023-04-25T02:47:32;15.00;15.00;9.60
77413;PMS7003;66486;49.992;19.164;2023-04-25T02:49:58;9.00;9.00;7.00
77413;PMS7003;66486;49.992;19.164;2023-04-25T02:52:24;12.25;12.25;7.00
77413;PMS7003;66486;49.992;19.164;2023-04-25T02:54:51;12.20;11.60;7.80
77413;PMS7003;66486;49.992;19.164;2023-04-25T02:57:16;12.25;11.00;8.00
77413;PMS7003;66486;49.992;19.164;2023-04-25T02:59:42;13.00;12.80;7.80
77413;PMS7003;66486;49.992;19.164;2023-04-25T03:02:08;10.50;10.50;7.00
77413;PMS7003;66486;49.992;19.164;2023-04-25T03:04:35;11.80;10.00;6.60
77413;PMS7003;66486;49.992;19.164;2023-04-25T03:07:01;12.25;11.00;8.50
77413;PMS7003;66486;49.992;19.164;2023-04-25T03:09:27;7.00;7.00;6.20
77413;PMS7003;66486;49.992;19.164;2023-04-25T03:11:52;13.00;12.00;9.25
77413;PMS7003;66486;49.992;19.164;2023-04-25T03:14:19;16.00;15.00;10.40
77413;PMS7003;66486;49.992;19.164;2023-04-25T03:16:44;15.50;15.50;12.00
77413;PMS7003;66486;49.992;19.164;2023-04-25T03:19:11;12.20;12.20;9.20
77413;PMS7003;66486;49.992;19.164;2023-04-25T03:21:37;11.25;11.25;8.00
77413;PMS7003;66486;49.992;19.164;2023-04-25T03:24:03;11.60;10.00;7.80
77413;PMS7003;66486;49.992;19.164;2023-04-25T03:26:31;17.20;15.00;10.00
77413;PMS7003;66486;49.992;19.164;2023-04-25T03:28:57;11.00;7.80;4.00
77413;PMS7003;66486;49.992;19.164;2023-04-25T03:31:23;9.50;9.50;6.75
77413;PMS7003;66486;49.992;19.164;2023-04-25T03:33:49;10.80;9.40;6.00
77413;PMS7003;66486;49.992;19.164;2023-04-25T03:36:14;9.75;8.50;7.00
77413;PMS7003;66486;49.992;19.164;2023-04-25T03:38:40;12.00;12.00;8.40
77413;PMS7003;66486;49.992;19.164;2023-04-25T03:41:07;7.40;7.40;6.60
77413;PMS7003;66486;49.992;19.164;2023-04-25T03:43:33;6.20;4.80;3.80
77413;PMS7003;66486;49.992;19.164;2023-04-25T03:45:59;13.00;12.75;9.00
77413;PMS7003;66486;49.992;19.164;2023-04-25T03:48:26;9.40;9.00;6.80
77413;PMS7003;66486;49.992;19.164;2023-04-25T03:50:52;9.60;9.00;7.00
77413;PMS7003;66486;49.992;19.164;2023-04-25T03:53:19;10.00;9.00;6.20
77413;PMS7003;66486;49.992;19.164;2023-04-25T03:55:45;7.00;7.00;6.00
77413;PMS7003;66486;49.992;19.164;2023-04-25T03:58:11;6.80;6.00;4.00
77413;PMS7003;66486;49.992;19.164;2023-04-25T04:00:37;11.75;11.50;7.25
77413;PMS7003;66486;49.992;19.164;2023-04-25T04:03:03;8.40;8.40;6.60
77413;PMS7003;66486;49.992;19.164;2023-04-25T04:05:29;9.00;9.00;7.00
77413;PMS7003;66486;49.992;19.164;2023-04-25T04:07:55;9.20;6.40;6.20
77413;PMS7003;66486;49.992;19.164;2023-04-25T04:10:21;9.75;9.75;7.00
77413;PMS7003;66486;49.992;19.164;2023-04-25T04:12:48;7.00;7.00;6.00
77413;PMS7003;66486;49.992;19.164;2023-04-25T04:15:13;10.00;10.00;6.75
77413;PMS7003;66486;49.992;19.164;2023-04-25T04:17:40;11.60;11.60;8.20
77413;PMS7003;66486;49.992;19.164;2023-04-25T04:20:06;11.60;10.00;7.80
77413;PMS7003;66486;49.992;19.164;2023-04-25T04:22:34;9.00;8.60;6.80
77413;PMS7003;66486;49.992;19.164;2023-04-25T04:25:00;9.00;9.00;7.00
77413;PMS7003;66486;49.992;19.164;2023-04-25T04:27:26;10.80;10.80;7.00
77413;PMS7003;66486;49.992;19.164;2023-04-25T04:29:54;11.20;10.40;8.20
77413;PMS7003;66486;49.992;19.164;2023-04-25T04:32:20;9.00;9.00;6.80
77413;PMS7003;66486;49.992;19.164;2023-04-25T04:34:46;4.50;4.00;2.50
77413;PMS7003;66486;49.992;19.164;2023-04-25T04:37:13;10.80;10.20;7.00
77413;PMS7003;66486;49.992;19.164;2023-04-25T04:39:38;9.00;9.00;6.00
77413;PMS7003;66486;49.992;19.164;2023-04-25T04:42:05;11.00;9.80;7.00
77413;PMS7003;66486;49.992;19.164;2023-04-25T04:44:31;6.80;6.80;6.00
77413;PMS7003;66486;49.992;19.164;2023-04-25T04:47:01;7.00;7.00;6.00
77413;PMS7003;66486;49.992;19.164;2023-04-25T04:49:27;8.60;8.60;6.80
77413;PMS7003;66486;49.992;19.164;2023-04-25T04:51:53;13.00;9.40;6.60
77413;PMS7003;66486;49.992;19.164;2023-04-25T04:54:20;9.60;9.60;6.60
77413;PMS7003;66486;49.992;19.164;2023-04-25T04:56:46;7.20;7.20;4.80
77413;PMS7003;66486;49.992;19.164;2023-04-25T04:59:11;7.00;7.00;6.00
77413;PMS7003;66486;49.992;19.164;2023-04-25T05:01:38;8.40;8.20;6.80
77413;PMS7003;66486;49.992;19.164;2023-04-25T05:04:03;6.50;6.50;6.00
77413;PMS7003;66486;49.992;19.164;2023-04-25T05:06:31;6.20;6.20;3.80
77413;PMS7003;66486;49.992;19.164;2023-04-25T05:08:56;10.50;9.75;7.00
77413;PMS7003;66486;49.992;19.164;2023-04-25T05:11:24;9.60;9.60;7.00
77413;PMS7003;66486;49.992;19.164;2023-04-25T05:13:53;8.20;8.20;6.80
77413;PMS7003;66486;49.992;19.164;2023-04-25T05:16:20;7.00;7.00;7.00
77413;PMS7003;66486;49.992;19.164;2023-04-25T05:18:46;9.20;9.20;7.00
77413;PMS7003;66486;49.992;19.164;2023-04-25T05:21:13;10.00;10.00;9.00
77413;PMS7003;66486;49.992;19.164;2023-04-25T05:23:38;10.00;10.00;7.00
77413;PMS7003;66486;49.992;19.164;2023-04-25T05:26:04;9.00;9.00;6.60
77413;PMS7003;66486;49.992;19.164;2023-04-25T05:28:30;10.00;10.00;8.00
77413;PMS7003;66486;49.992;19.164;2023-04-25T05:30:57;8.60;8.60;7.00
77413;PMS7003;66486;49.992;19.164;2023-04-25T05:33:23;8.50;8.50;6.75
77413;PMS7003;66486;49.992;19.164;2023-04-25T05:35:49;10.00;9.60;7.00
77413;PMS7003;66486;49.992;19.164;2023-04-25T05:38:15;7.00;7.00;6.00
77413;PMS7003;66486;49.992;19.164;2023-04-25T05:40:41;9.40;9.40;6.80
77413;PMS7003;66486;49.992;19.164;2023-04-25T05:43:07;7.67;7.67;6.33
77413;PMS7003;66486;49.992;19.164;2023-04-25T05:45:33;9.00;9.00;7.00
77413;PMS7003;66486;49.992;19.164;2023-04-25T05:47:59;8.50;8.50;6.25
77413;PMS7003;66486;49.992;19.164;2023-04-25T05:50:25;9.00;9.00;6.60
77413;PMS7003;66486;49.992;19.164;2023-04-25T05:52:51;16.20;15.40;10.40
77413;PMS7003;66486;49.992;19.164;2023-04-25T05:55:18;1.80;1.80;1.00
77413;PMS7003;66486;49.992;19.164;2023-04-25T05:57:43;10.00;10.00;7.00
77413;PMS7003;66486;49.992;19.164;2023-04-25T06:00:11;7.00;7.00;6.00
77413;PMS7003;66486;49.992;19.164;2023-04-25T06:02:38;9.00;9.00;7.00
77413;PMS7003;66486;49.992;19.164;2023-04-25T06:05:04;12.60;11.60;6.80
77413;PMS7003;66486;49.992;19.164;2023-04-25T06:07:30;12.60;12.60;9.00
77413;PMS7003;66486;49.992;19.164;2023-04-25T06:09:56;10.00;10.00;6.80
77413;PMS7003;66486;49.992;19.164;2023-04-25T06:12:23;7.80;7.80;4.40
77413;PMS7003;66486;49.992;19.164;2023-04-25T06:14:49;10.00;10.00;9.00
77413;PMS7003;66486;49.992;19.164;2023-04-25T06:17:15;7.00;7.00;7.00
77413;PMS7003;66486;49.992;19.164;2023-04-25T06:19:41;8.60;8.60;6.80
77413;PMS7003;66486;49.992;19.164;2023-04-25T06:22:07;9.50;9.50;7.00
77413;PMS7003;66486;49.992;19.164;2023-04-25T06:24:33;5.60;5.60;4.00
77413;PMS7003;66486;49.992;19.164;2023-04-25T06:27:00;8.00;8.00;5.40
77413;PMS7003;66486;49.992;19.164;2023-04-25T06:29:27;4.60;4.60;3.60
77413;PMS7003;66486;49.992;19.164;2023-04-25T06:31:52;8.50;8.00;5.50
77413;PMS7003;66486;49.992;19.164;2023-04-25T06:34:19;10.00;9.40;7.00
77413;PMS7003;66486;49.992;19.164;2023-04-25T06:36:45;9.60;8.80;6.60
77413;PMS7003;66486;49.992;19.164;2023-04-25T06:39:11;6.00;6.00;4.00
77413;PMS7003;66486;49.992;19.164;2023-04-25T06:41:37;7.50;7.50;6.00
77413;PMS7003;66486;49.992;19.164;2023-04-25T06:44:03;6.20;6.20;4.00
77413;PMS7003;66486;49.992;19.164;2023-04-25T06:46:29;8.00;8.00;7.00
77413;PMS7003;66486;49.992;19.164;2023-04-25T06:48:55;7.20;7.20;5.80
77413;PMS7003;66486;49.992;19.164;2023-04-25T06:51:20;7.00;7.00;4.50
77413;PMS7003;66486;49.992;19.164;2023-04-25T06:53:47;9.20;9.20;6.60
77413;PMS7003;66486;49.992;19.164;2023-04-25T06:56:13;12.50;9.75;6.00
77413;PMS7003;66486;49.992;19.164;2023-04-25T06:58:39;7.00;7.00;4.40
77413;PMS7003;66486;49.992;19.164;2023-04-25T07:01:05;12.25;10.50;4.50
77413;PMS7003;66486;49.992;19.164;2023-04-25T07:03:31;9.00;9.00;6.20
77413;PMS7003;66486;49.992;19.164;2023-04-25T07:05:57;13.50;12.75;9.75
77413;PMS7003;66486;49.992;19.164;2023-04-25T07:08:23;11.40;11.40;6.80
77413;PMS7003;66486;49.992;19.164;2023-04-25T07:10:48;10.25;8.00;6.50
77413;PMS7003;66486;49.992;19.164;2023-04-25T07:13:15;8.40;7.00;4.40
77413;PMS7003;66486;49.992;19.164;2023-04-25T07:15:41;4.00;4.00;2.25
77413;PMS7003;66486;49.992;19.164;2023-04-25T07:18:07;10.40;8.40;6.80
77413;PMS7003;66486;49.992;19.164;2023-04-25T07:20:33;7.50;7.00;4.00
77413;PMS7003;66486;49.992;19.164;2023-04-25T07:22:59;6.20;4.60;4.00
77413;PMS7003;66486;49.992;19.164;2023-04-25T07:25:25;10.25;10.25;7.00
77413;PMS7003;66486;49.992;19.164;2023-04-25T07:27:51;7.00;7.00;5.20
77413;PMS7003;66486;49.992;19.164;2023-04-25T07:30:17;13.50;10.00;7.00
77413;PMS7003;66486;49.992;19.164;2023-04-25T07:32:43;13.40;12.80;7.80
77413;PMS7003;66486;49.992;19.164;2023-04-25T07:35:10;9.20;9.20;7.60
77413;PMS7003;66486;49.992;19.164;2023-04-25T07:37:36;10.60;10.60;7.60
77413;PMS7003;66486;49.992;19.164;2023-04-25T07:40:03;11.00;11.00;7.00
77413;PMS7003;66486;49.992;19.164;2023-04-25T07:42:30;8.40;8.40;6.20
77413;PMS7003;66486;49.992;19.164;2023-04-25T07:44:56;9.40;9.20;6.60
77413;PMS7003;66486;49.992;19.164;2023-04-25T07:47:22;7.40;7.40;5.00
77413;PMS7003;66486;49.992;19.164;2023-04-25T07:49:47;11.25;10.00;6.50
77413;PMS7003;66486;49.992;19.164;2023-04-25T07:52:14;8.60;8.60;6.60
77413;PMS7003;66486;49.992;19.164;2023-04-25T07:54:40;9.60;9.60;7.00
77413;PMS7003;66486;49.992;19.164;2023-04-25T07:57:06;7.00;7.00;5.00
77413;PMS7003;66486;49.992;19.164;2023-04-25T07:59:32;7.20;7.20;6.20
77413;PMS7003;66486;49.992;19.164;2023-04-25T08:01:58;10.00;10.00;7.00
77413;PMS7003;66486;49.992;19.164;2023-04-25T08:04:24;8.80;7.60;5.80
77413;PMS7003;66486;49.992;19.164;2023-04-25T08:06:51;9.20;9.20;5.40
77413;PMS7003;66486;49.992;19.164;2023-04-25T08:09:18;10.00;10.00;7.00
77413;PMS7003;66486;49.992;19.164;2023-04-25T08:11:44;13.40;12.00;7.60
77413;PMS7003;66486;49.992;19.164;2023-04-25T08:14:10;8.00;8.00;7.00
77413;PMS7003;66486;49.992;19.164;2023-04-25T08:16:37;10.20;9.20;6.60
77413;PMS7003;66486;49.992;19.164;2023-04-25T08:19:03;13.20;11.00;7.60
77413;PMS7003;66486;49.992;19.164;2023-04-25T08:21:29;12.75;11.00;8.00
77413;PMS7003;66486;49.992;19.164;2023-04-25T08:23:55;5.80;5.00;3.60
77413;PMS7003;66486;49.992;19.164;2023-04-25T08:26:21;7.20;7.20;5.80
77413;PMS7003;66486;49.992;19.164;2023-04-25T08:28:47;8.00;8.00;5.40
77413;PMS7003;66486;49.992;19.164;2023-04-25T08:31:13;7.25;7.25;5.50
77413;PMS7003;66486;49.992;19.164;2023-04-25T08:33:40;8.40;8.40;6.20
77413;PMS7003;66486;49.992;19.164;2023-04-25T08:36:06;5.00;5.00;4.00
77413;PMS7003;66486;49.992;19.164;2023-04-25T08:38:32;8.80;8.60;7.00
77413;PMS7003;66486;49.992;19.164;2023-04-25T08:40:58;14.75;11.50;8.00
77413;PMS7003;66486;49.992;19.164;2023-04-25T08:43:26;8.40;8.00;5.80
77413;PMS7003;66486;49.992;19.164;2023-04-25T08:45:54;11.60;11.60;7.80
77413;PMS7003;66486;49.992;19.164;2023-04-25T08:48:26;12.80;12.00;9.20
77413;PMS7003;66486;49.992;19.164;2023-04-25T08:50:55;11.60;10.60;8.00
77413;PMS7003;66486;49.992;19.164;2023-04-25T08:53:25;10.20;10.20;8.00
77413;PMS7003;66486;49.992;19.164;2023-04-25T08:55:53;10.60;9.00;7.00
77413;PMS7003;66486;49.992;19.164;2023-04-25T08:58:20;9.20;9.20;8.00
77413;PMS7003;66486;49.992;19.164;2023-04-25T09:00:47;10.00;10.00;7.80
77413;PMS7003;66486;49.992;19.164;2023-04-25T09:03:14;9.80;9.40;7.20
77413;PMS7003;66486;49.992;19.164;2023-04-25T09:05:40;12.00;12.00;9.20
77413;PMS7003;66486;49.992;19.164;2023-04-25T09:08:07;11.00;11.00;7.80
77413;PMS7003;66486;49.992;19.164;2023-04-25T09:10:33;10.20;9.00;7.00
77413;PMS7003;66486;49.992;19.164;2023-04-25T09:13:10;11.40;10.80;7.80
77413;PMS7003;66486;49.992;19.164;2023-04-25T09:15:56;12.00;11.60;7.80
77413;PMS7003;66486;49.992;19.164;2023-04-25T09:21:11;7.80;7.80;6.20
77413;PMS7003;66486;49.992;19.164;2023-04-25T09:23:45;7.80;7.80;7.60
77413;PMS7003;66486;49.992;19.164;2023-04-25T09:26:14;7.00;7.00;5.00
77413;PMS7003;66486;49.992;19.164;2023-04-25T09:28:42;11.80;11.20;8.40
77413;PMS7003;66486;49.992;19.164;2023-04-25T09:31:11;12.50;10.00;7.75
77413;PMS7003;66486;49.992;19.164;2023-04-25T09:33:38;12.40;12.40;8.40
77413;PMS7003;66486;49.992;19.164;2023-04-25T09:36:07;10.50;10.50;7.75
77413;PMS7003;66486;49.992;19.164;2023-04-25T09:38:40;12.00;11.00;8.00
77413;PMS7003;66486;49.992;19.164;2023-04-25T09:41:09;10.20;10.20;8.00
77413;PMS7003;66486;49.992;19.164;2023-04-25T09:43:36;9.80;9.80;8.00
77413;PMS7003;66486;49.992;19.164;2023-04-25T09:46:07;8.40;8.00;4.00
77413;PMS7003;66486;49.992;19.164;2023-04-25T09:48:35;14.60;11.00;8.00
77413;PMS7003;66486;49.992;19.164;2023-04-25T09:51:08;11.00;11.00;9.20
77413;PMS7003;66486;49.992;19.164;2023-04-25T09:53:45;8.40;8.40;7.40
77413;PMS7003;66486;49.992;19.164;2023-04-25T09:56:15;14.60;12.60;8.60
77413;PMS7003;66486;49.992;19.164;2023-04-25T09:58:41;8.80;8.60;8.00
77413;PMS7003;66486;49.992;19.164;2023-04-25T10:01:10;11.60;11.60;8.40
77413;PMS7003;66486;49.992;19.164;2023-04-25T10:03:37;10.60;10.60;7.40
77413;PMS7003;66486;49.992;19.164;2023-04-25T10:06:08;11.40;10.80;7.80
77413;PMS7003;66486;49.992;19.164;2023-04-25T10:08:38;11.80;11.80;6.60
77413;PMS7003;66486;49.992;19.164;2023-04-25T10:11:04;12.20;12.20;9.20
77413;PMS7003;66486;49.992;19.164;2023-04-25T10:13:34;14.00;14.00;10.20
77413;PMS7003;66486;49.992;19.164;2023-04-25T10:16:03;7.80;7.80;7.00
77413;PMS7003;66486;49.992;19.164;2023-04-25T10:18:30;13.20;13.20;9.80
77413;PMS7003;66486;49.992;19.164;2023-04-25T10:20:58;9.80;9.80;8.00
77413;PMS7003;66486;49.992;19.164;2023-04-25T10:23:26;11.00;11.00;8.20
77413;PMS7003;66486;49.992;19.164;2023-04-25T10:25:54;12.00;11.40;8.40
77413;PMS7003;66486;49.992;19.164;2023-04-25T10:28:20;10.80;10.80;8.20
77413;PMS7003;66486;49.992;19.164;2023-04-25T10:31:02;7.75;7.75;7.00
77413;PMS7003;66486;49.992;19.164;2023-04-25T10:33:38;18.00;15.40;11.60
77413;PMS7003;66486;49.992;19.164;2023-04-25T10:38:41;11.80;11.00;8.40
77413;PMS7003;66486;49.992;19.164;2023-04-25T10:41:08;14.60;14.60;11.00
77413;PMS7003;66486;49.992;19.164;2023-04-25T10:48:54;11.20;11.20;8.40
77413;PMS7003;66486;49.992;19.164;2023-04-25T10:51:28;15.00;15.00;9.80
77413;PMS7003;66486;49.992;19.164;2023-04-25T10:53:58;10.60;10.60;8.00
77413;PMS7003;66486;49.992;19.164;2023-04-25T10:56:25;11.60;11.00;8.00
77413;PMS7003;66486;49.992;19.164;2023-04-25T10:59:12;10.20;10.20;8.20
77413;PMS7003;66486;49.992;19.164;2023-04-25T11:01:46;8.00;8.00;6.20
77413;PMS7003;66486;49.992;19.164;2023-04-25T11:04:23;12.80;12.00;8.00
77413;PMS7003;66486;49.992;19.164;2023-04-25T11:09:28;8.00;8.00;6.80
77413;PMS7003;66486;49.992;19.164;2023-04-25T11:11:55;7.60;7.60;6.40
77413;PMS7003;66486;49.992;19.164;2023-04-25T11:14:24;5.00;5.00;5.00
77413;PMS7003;66486;49.992;19.164;2023-04-25T11:16:53;5.40;5.40;5.00
77413;PMS7003;66486;49.992;19.164;2023-04-25T11:19:24;4.40;4.40;2.00
77413;PMS7003;66486;49.992;19.164;2023-04-25T11:21:50;7.60;7.60;5.60
77413;PMS7003;66486;49.992;19.164;2023-04-25T11:24:21;8.40;8.20;7.20
77413;PMS7003;66486;49.992;19.164;2023-04-25T11:26:52;8.20;8.00;5.40
77413;PMS7003;66486;49.992;19.164;2023-04-25T11:29:18;11.00;9.00;8.00
77413;PMS7003;66486;49.992;19.164;2023-04-25T11:31:48;7.00;7.00;6.20
77413;PMS7003;66486;49.992;19.164;2023-04-25T11:34:17;5.40;5.40;4.00
77413;PMS7003;66486;49.992;19.164;2023-04-25T11:36:44;8.00;8.00;5.00
77413;PMS7003;66486;49.992;19.164;2023-04-25T11:39:11;8.20;8.20;5.20
77413;PMS7003;66486;49.992;19.164;2023-04-25T11:41:38;10.60;9.00;5.00
77413;PMS7003;66486;49.992;19.164;2023-04-25T11:44:04;8.60;8.00;6.20
77413;PMS7003;66486;49.992;19.164;2023-04-25T11:46:30;4.20;4.00;3.60
77413;PMS7003;66486;49.992;19.164;2023-04-25T11:49:00;6.80;5.60;4.40
77413;PMS7003;66486;49.992;19.164;2023-04-25T11:51:26;9.60;8.80;7.20
77413;PMS7003;66486;49.992;19.164;2023-04-25T11:53:53;8.20;7.80;5.00
77413;PMS7003;66486;49.992;19.164;2023-04-25T11:56:19;8.00;8.00;5.00
77413;PMS7003;66486;49.992;19.164;2023-04-25T11:58:56;6.60;6.60;5.60
77413;PMS7003;66486;49.992;19.164;2023-04-25T12:01:33;8.00;8.00;5.00
77413;PMS7003;66486;49.992;19.164;2023-04-25T12:04:10;9.20;9.20;7.20
77413;PMS7003;66486;49.992;19.164;2023-04-25T12:06:38;8.60;8.40;8.00
77413;PMS7003;66486;49.992;19.164;2023-04-25T12:09:08;8.20;8.20;7.00
77413;PMS7003;66486;49.992;19.164;2023-04-25T12:11:48;6.80;6.40;5.00
77413;PMS7003;66486;49.992;19.164;2023-04-25T12:14:25;4.60;4.60;4.20
77413;PMS7003;66486;49.992;19.164;2023-04-25T12:17:01;5.40;5.40;4.20
77413;PMS7003;66486;49.992;19.164;2023-04-25T12:19:33;7.80;7.80;7.00
77413;PMS7003;66486;49.992;19.164;2023-04-25T12:22:01;8.00;8.00;6.20
77413;PMS7003;66486;49.992;19.164;2023-04-25T12:24:28;8.20;8.20;6.60
77413;PMS7003;66486;49.992;19.164;2023-04-25T12:26:59;9.00;8.80;7.00
77413;PMS7003;66486;49.992;19.164;2023-04-25T12:29:26;4.80;4.40;4.00
77413;PMS7003;66486;49.992;19.164;2023-04-25T12:31:53;5.40;5.40;4.20
77413;PMS7003;66486;49.992;19.164;2023-04-25T12:34:21;5.60;5.60;4.00
77413;PMS7003;66486;49.992;19.164;2023-04-25T12:36:48;8.80;8.80;8.00
77413;PMS7003;66486;49.992;19.164;2023-04-25T12:39:18;7.00;7.00;5.40
77413;PMS7003;66486;49.992;19.164;2023-04-25T12:41:48;6.60;5.80;4.40
77413;PMS7003;66486;49.992;19.164;2023-04-25T12:44:15;5.80;5.00;4.40
77413;PMS7003;66486;49.992;19.164;2023-04-25T12:46:41;8.60;8.00;7.00
77413;PMS7003;66486;49.992;19.164;2023-04-25T12:49:07;7.20;7.20;5.40
77413;PMS7003;66486;49.992;19.164;2023-04-25T12:51:34;6.80;6.80;5.40
77413;PMS7003;66486;49.992;19.164;2023-04-25T12:54:01;6.20;6.20;5.00
77413;PMS7003;66486;49.992;19.164;2023-04-25T12:56:29;7.00;7.00;5.80
77413;PMS7003;66486;49.992;19.164;2023-04-25T12:58:56;7.00;7.00;5.40
77413;PMS7003;66486;49.992;19.164;2023-04-25T13:01:23;8.00;8.00;7.00
77413;PMS7003;66486;49.992;19.164;2023-04-25T13:03:50;8.00;8.00;7.00
77413;PMS7003;66486;49.992;19.164;2023-04-25T13:06:16;5.00;5.00;4.00
77413;PMS7003;66486;49.992;19.164;2023-04-25T13:08:43;7.00;5.40;5.00
77413;PMS7003;66486;49.992;19.164;2023-04-25T13:11:09;5.00;5.00;4.00
77413;PMS7003;66486;49.992;19.164;2023-04-25T13:13:37;7.80;7.80;7.00
77413;PMS7003;66486;49.992;19.164;2023-04-25T13:16:03;6.60;6.60;5.00
77413;PMS7003;66486;49.992;19.164;2023-04-25T13:18:30;7.00;5.00;4.00
77413;PMS7003;66486;49.992;19.164;2023-04-25T13:20:56;8.00;8.00;8.00
77413;PMS7003;66486;49.992;19.164;2023-04-25T13:23:24;3.20;3.20;1.80
77413;PMS7003;66486;49.992;19.164;2023-04-25T13:25:51;8.40;8.40;7.00
77413;PMS7003;66486;49.992;19.164;2023-04-25T13:28:18;7.20;7.20;5.00
77413;PMS7003;66486;49.992;19.164;2023-04-25T13:30:44;11.50;11.50;8.25
77413;PMS7003;66486;49.992;19.164;2023-04-25T13:33:11;7.80;7.80;6.60
77413;PMS7003;66486;49.992;19.164;2023-04-25T13:35:37;5.80;5.80;4.00
77413;PMS7003;66486;49.992;19.164;2023-04-25T13:38:03;5.40;5.40;4.20
77413;PMS7003;66486;49.992;19.164;2023-04-25T13:40:30;6.60;6.60;5.00
77413;PMS7003;66486;49.992;19.164;2023-04-25T13:42:56;5.40;5.40;4.60
77413;PMS7003;66486;49.992;19.164;2023-04-25T13:45:22;7.00;7.00;6.00
77413;PMS7003;66486;49.992;19.164;2023-04-25T13:47:48;17.00;17.00;11.60
77413;PMS7003;66486;49.992;19.164;2023-04-25T13:50:14;12.25;12.25;8.50
77413;PMS7003;66486;49.992;19.164;2023-04-25T13:52:41;12.20;12.20;9.80
77413;PMS7003;66486;49.992;19.164;2023-04-25T13:55:07;8.00;8.00;7.00
77413;PMS7003;66486;49.992;19.164;2023-04-25T13:57:35;12.20;11.20;8.00
77413;PMS7003;66486;49.992;19.164;2023-04-25T14:00:01;11.40;11.00;9.20
77413;PMS7003;66486;49.992;19.164;2023-04-25T14:02:37;8.20;8.20;7.40
77413;PMS7003;66486;49.992;19.164;2023-04-25T14:05:03;18.40;18.20;14.00
77413;PMS7003;66486;49.992;19.164;2023-04-25T14:07:30;11.20;10.60;8.00
77413;PMS7003;66486;49.992;19.164;2023-04-25T14:09:57;11.00;9.80;8.00